sensor_id;sensor_type;location;lat;lon;timestamp;pressure;altitude;pressure_sealevel;temperature;humidity
61908;BME280;47864;52.526;19.672;2023-07-24T00:01:07;154524.03;;;22.04;58.22
61908;BME280;47864;52.526;19.672;2023-07-24T00:03:08;154502.34;;;21.95;57.94
61908;BME280;47864;52.526;19.672;2023-07-24T00:05:10;154498.50;;;21.94;58.07
61908;BME280;47864;52.526;19.672;2023-07-24T00:07:12;154499.78;;;21.94;58.18
61908;BME280;47864;52.526;19.672;2023-07-24T00:09:13;154495.97;;;21.93;58.06
61908;BME280;47864;52.526;19.672;2023-07-24T00:11:15;154465.41;;;21.81;58.56
61908;BME280;47864;52.526;19.672;2023-07-24T00:13:17;154434.81;;;21.69;58.82
61908;BME280;47864;52.526;19.672;2023-07-24T00:15:19;154457.75;;;21.78;58.71
61908;BME280;47864;52.526;19.672;2023-07-24T00:17:20;154436.09;;;21.69;58.77
61908;BME280;47864;52.526;19.672;2023-07-24T00:19:22;154457.75;;;21.78;58.88
61908;BME280;47864;52.526;19.672;2023-07-24T00:21:24;154438.63;;;21.70;58.74
61908;BME280;47864;52.526;19.672;2023-07-24T00:23:25;154436.09;;;21.69;59.08
61908;BME280;47864;52.526;19.672;2023-07-24T00:25:27;154427.19;;;21.66;59.09
61908;BME280;47864;52.526;19.672;2023-07-24T00:27:28;154406.81;;;21.57;59.09
61908;BME280;47864;52.526;19.672;2023-07-24T00:29:30;154415.72;;;21.61;59.12
61908;BME280;47864;52.526;19.672;2023-07-24T00:31:32;154403.00;;;21.56;59.34
61908;BME280;47864;52.526;19.672;2023-07-24T00:33:33;154395.31;;;21.53;59.15
61908;BME280;47864;52.526;19.672;2023-07-24T00:35:35;154401.72;;;21.55;59.43
61908;BME280;47864;52.526;19.672;2023-07-24T00:37:36;154383.88;;;21.48;59.15
61908;BME280;47864;52.526;19.672;2023-07-24T00:39:38;154386.44;;;21.49;59.22
61908;BME280;47864;52.526;19.672;2023-07-24T00:41:40;154371.13;;;21.43;59.63
61908;BME280;47864;52.526;19.672;2023-07-24T00:43:41;154355.84;;;21.37;61.88
61908;BME280;47864;52.526;19.672;2023-07-24T00:45:44;154330.38;;;21.27;60.77
61908;BME280;47864;52.526;19.672;2023-07-24T00:47:47;154330.38;;;21.27;61.05
61908;BME280;47864;52.526;19.672;2023-07-24T00:49:49;154336.75;;;21.30;60.81
61908;BME280;47864;52.526;19.672;2023-07-24T00:51:50;154294.69;;;21.13;60.78
61908;BME280;47864;52.526;19.672;2023-07-24T00:53:57;154307.44;;;21.18;62.66
61908;BME280;47864;52.526;19.672;2023-07-24T00:55:59;154315.09;;;21.21;61.68
61908;BME280;47864;52.526;19.672;2023-07-24T00:58:01;154311.28;;;21.19;61.53
61908;BME280;47864;52.526;19.672;2023-07-24T01:00:04;154279.41;;;21.07;62.90
61908;BME280;47864;52.526;19.672;2023-07-24T01:02:06;154256.50;;;20.98;63.59
61908;BME280;47864;52.526;19.672;2023-07-24T01:04:08;154243.72;;;20.93;65.43
61908;BME280;47864;52.526;19.672;2023-07-24T01:06:09;154204.28;;;20.77;63.82
61908;BME280;47864;52.526;19.672;2023-07-24T01:08:11;154126.63;;;20.46;64.05
61908;BME280;47864;52.526;19.672;2023-07-24T01:10:12;154113.94;;;20.41;63.91
61908;BME280;47864;52.526;19.672;2023-07-24T01:12:22;154094.78;;;20.33;63.94
61908;BME280;47864;52.526;19.672;2023-07-24T01:14:32;154096.13;;;20.34;63.63
61908;BME280;47864;52.526;19.672;2023-07-24T01:16:40;154098.63;;;20.35;63.43
61908;BME280;47864;52.526;19.672;2023-07-24T01:18:42;154073.16;;;20.25;63.66
61908;BME280;47864;52.526;19.672;2023-07-24T01:20:50;154101.16;;;20.36;63.64
61908;BME280;47864;52.526;19.672;2023-07-24T01:25:31;154144.44;;;20.53;63.19
61908;BME280;47864;52.526;19.672;2023-07-24T01:27:33;154133.03;;;20.48;63.30
61908;BME280;47864;52.526;19.672;2023-07-24T01:29:34;154124.09;;;20.45;63.86
61908;BME280;47864;52.526;19.672;2023-07-24T01:31:36;154144.44;;;20.53;63.95
61908;BME280;47864;52.526;19.672;2023-07-24T01:33:38;154070.59;;;20.24;64.63
61908;BME280;47864;52.526;19.672;2023-07-24T01:35:41;154055.34;;;20.18;66.00
61908;BME280;47864;52.526;19.672;2023-07-24T01:37:45;154066.78;;;20.22;65.47
61908;BME280;47864;52.526;19.672;2023-07-24T01:39:47;154071.88;;;20.24;66.99
61908;BME280;47864;52.526;19.672;2023-07-24T01:41:49;154079.47;;;20.27;67.03
61908;BME280;47864;52.526;19.672;2023-07-24T01:43:52;154088.41;;;20.31;68.32
61908;BME280;47864;52.526;19.672;2023-07-24T01:45:53;154101.16;;;20.36;68.25
61908;BME280;47864;52.526;19.672;2023-07-24T01:47:55;154097.34;;;20.34;67.04
61908;BME280;47864;52.526;19.672;2023-07-24T01:49:57;154056.56;;;20.18;66.38
61908;BME280;47864;52.526;19.672;2023-07-24T01:51:58;154045.16;;;20.13;65.99
61908;BME280;47864;52.526;19.672;2023-07-24T01:54:00;154050.25;;;20.16;65.98
61908;BME280;47864;52.526;19.672;2023-07-24T01:56:01;154013.34;;;20.01;66.58
61908;BME280;47864;52.526;19.672;2023-07-24T01:58:03;154023.50;;;20.05;66.39
61908;BME280;47864;52.526;19.672;2023-07-24T02:00:05;154001.88;;;19.96;66.95
61908;BME280;47864;52.526;19.672;2023-07-24T02:02:07;153986.63;;;19.90;66.77
61908;BME280;47864;52.526;19.672;2023-07-24T02:04:08;154034.94;;;20.09;66.55
61908;BME280;47864;52.526;19.672;2023-07-24T02:06:10;154019.69;;;20.03;66.86
61908;BME280;47864;52.526;19.672;2023-07-24T02:08:11;154006.97;;;19.98;66.70
61908;BME280;47864;52.526;19.672;2023-07-24T02:10:13;154031.16;;;20.08;66.31
61908;BME280;47864;52.526;19.672;2023-07-24T02:12:14;154032.44;;;20.08;66.11
61908;BME280;47864;52.526;19.672;2023-07-24T02:14:17;154018.41;;;20.03;66.87
61908;BME280;47864;52.526;19.672;2023-07-24T02:16:19;154032.44;;;20.08;67.24
61908;BME280;47864;52.526;19.672;2023-07-24T02:18:21;154071.88;;;20.24;66.48
61908;BME280;47864;52.526;19.672;2023-07-24T02:20:23;154065.50;;;20.22;66.87
61908;BME280;47864;52.526;19.672;2023-07-24T02:22:24;154032.44;;;20.08;67.34
61908;BME280;47864;52.526;19.672;2023-07-24T02:24:26;154014.59;;;20.01;67.66
61908;BME280;47864;52.526;19.672;2023-07-24T02:26:27;153986.63;;;19.90;67.96
61908;BME280;47864;52.526;19.672;2023-07-24T02:28:29;153956.06;;;19.78;68.33
61908;BME280;47864;52.526;19.672;2023-07-24T02:30:30;153987.91;;;19.91;68.64
61908;BME280;47864;52.526;19.672;2023-07-24T02:32:32;153978.97;;;19.87;68.90
61908;BME280;47864;52.526;19.672;2023-07-24T02:34:34;153993.00;;;19.93;68.78
61908;BME280;47864;52.526;19.672;2023-07-24T02:36:35;153989.16;;;19.91;68.66
61908;BME280;47864;52.526;19.672;2023-07-24T02:38:37;153968.81;;;19.83;69.10
61908;BME280;47864;52.526;19.672;2023-07-24T02:40:40;153954.78;;;19.77;69.14
61908;BME280;47864;52.526;19.672;2023-07-24T02:42:42;153989.16;;;19.91;69.02
61908;BME280;47864;52.526;19.672;2023-07-24T02:44:44;153989.16;;;19.91;68.92
61908;BME280;47864;52.526;19.672;2023-07-24T02:46:45;153951.00;;;19.76;69.06
61908;BME280;47864;52.526;19.672;2023-07-24T02:48:47;153973.88;;;19.85;69.94
61908;BME280;47864;52.526;19.672;2023-07-24T02:50:48;153963.72;;;19.81;70.42
61908;BME280;47864;52.526;19.672;2023-07-24T02:52:50;153966.25;;;19.82;70.08
61908;BME280;47864;52.526;19.672;2023-07-24T02:54:51;153981.53;;;19.88;70.77
61908;BME280;47864;52.526;19.672;2023-07-24T02:56:53;153920.47;;;19.64;70.80
61908;BME280;47864;52.526;19.672;2023-07-24T02:58:54;153942.09;;;19.72;70.71
61908;BME280;47864;52.526;19.672;2023-07-24T03:01:06;153981.53;;;19.88;70.39
61908;BME280;47864;52.526;19.672;2023-07-24T03:03:08;154003.16;;;19.97;70.22
61908;BME280;47864;52.526;19.672;2023-07-24T03:05:09;153996.78;;;19.94;69.97
61908;BME280;47864;52.526;19.672;2023-07-24T03:07:11;154006.97;;;19.98;71.43
61908;BME280;47864;52.526;19.672;2023-07-24T03:09:13;154019.69;;;20.03;71.28
61908;BME280;47864;52.526;19.672;2023-07-24T03:11:14;153995.50;;;19.94;70.37
61908;BME280;47864;52.526;19.672;2023-07-24T03:13:16;153986.63;;;19.90;70.88
61908;BME280;47864;52.526;19.672;2023-07-24T03:15:18;153990.44;;;19.92;70.71
61908;BME280;47864;52.526;19.672;2023-07-24T03:17:20;154005.69;;;19.98;70.46
61908;BME280;47864;52.526;19.672;2023-07-24T03:19:21;153984.06;;;19.89;70.49
61908;BME280;47864;52.526;19.672;2023-07-24T03:21:23;154010.81;;;20.00;70.47
61908;BME280;47864;52.526;19.672;2023-07-24T03:23:24;154003.16;;;19.97;70.74
61908;BME280;47864;52.526;19.672;2023-07-24T03:25:26;153976.41;;;19.86;70.82
61908;BME280;47864;52.526;19.672;2023-07-24T03:27:28;153986.63;;;19.90;72.21
61908;BME280;47864;52.526;19.672;2023-07-24T03:29:29;154048.97;;;20.15;72.06
61908;BME280;47864;52.526;19.672;2023-07-24T03:31:30;154034.94;;;20.09;70.71
61908;BME280;47864;52.526;19.672;2023-07-24T03:33:32;154042.59;;;20.12;71.62
61908;BME280;47864;52.526;19.672;2023-07-24T03:35:34;154069.34;;;20.23;70.96
61908;BME280;47864;52.526;19.672;2023-07-24T03:37:35;154054.06;;;20.17;69.93
61908;BME280;47864;52.526;19.672;2023-07-24T03:39:37;154048.97;;;20.15;70.35
61908;BME280;47864;52.526;19.672;2023-07-24T03:41:40;154080.75;;;20.28;70.86
61908;BME280;47864;52.526;19.672;2023-07-24T03:43:42;154070.59;;;20.24;71.24
61908;BME280;47864;52.526;19.672;2023-07-24T03:45:44;154107.56;;;20.38;70.50
61908;BME280;47864;52.526;19.672;2023-07-24T03:47:45;154080.75;;;20.28;70.07
61908;BME280;47864;52.526;19.672;2023-07-24T03:49:47;154055.34;;;20.18;70.31
61908;BME280;47864;52.526;19.672;2023-07-24T03:51:49;154101.16;;;20.36;70.14
61908;BME280;47864;52.526;19.672;2023-07-24T03:53:50;154118.97;;;20.43;69.79
61908;BME280;47864;52.526;19.672;2023-07-24T03:55:55;154083.31;;;20.29;70.34
61908;BME280;47864;52.526;19.672;2023-07-24T03:57:57;154107.56;;;20.38;70.14
61908;BME280;47864;52.526;19.672;2023-07-24T03:59:58;154101.16;;;20.36;70.41
61908;BME280;47864;52.526;19.672;2023-07-24T04:01:59;154111.38;;;20.40;70.80
61908;BME280;47864;52.526;19.672;2023-07-24T04:04:01;154121.53;;;20.44;70.69
61908;BME280;47864;52.526;19.672;2023-07-24T04:06:03;154090.97;;;20.32;70.37
61908;BME280;47864;52.526;19.672;2023-07-24T04:08:04;154092.25;;;20.32;70.94
61908;BME280;47864;52.526;19.672;2023-07-24T04:10:06;154090.97;;;20.32;70.37
61908;BME280;47864;52.526;19.672;2023-07-24T04:12:08;154120.25;;;20.43;71.15
61908;BME280;47864;52.526;19.672;2023-07-24T04:14:10;154127.91;;;20.46;70.21
61908;BME280;47864;52.526;19.672;2023-07-24T04:16:11;154110.09;;;20.39;70.72
61908;BME280;47864;52.526;19.672;2023-07-24T04:18:13;154090.97;;;20.32;71.06
61908;BME280;47864;52.526;19.672;2023-07-24T04:20:14;154124.09;;;20.45;70.28
61908;BME280;47864;52.526;19.672;2023-07-24T04:22:16;154124.09;;;20.45;70.89
61908;BME280;47864;52.526;19.672;2023-07-24T04:24:18;154145.72;;;20.54;70.71
61908;BME280;47864;52.526;19.672;2023-07-24T04:26:19;154162.25;;;20.60;70.02
61908;BME280;47864;52.526;19.672;2023-07-24T04:28:21;154117.72;;;20.42;70.72
61908;BME280;47864;52.526;19.672;2023-07-24T04:30:22;154155.94;;;20.58;71.08
61908;BME280;47864;52.526;19.672;2023-07-24T04:32:26;154152.09;;;20.56;70.62
61908;BME280;47864;52.526;19.672;2023-07-24T04:34:28;154176.31;;;20.66;70.96
61908;BME280;47864;52.526;19.672;2023-07-24T04:36:30;154176.31;;;20.66;71.03
61908;BME280;47864;52.526;19.672;2023-07-24T04:38:32;154227.19;;;20.86;70.17
61908;BME280;47864;52.526;19.672;2023-07-24T04:40:33;154298.50;;;21.14;70.55
61908;BME280;47864;52.526;19.672;2023-07-24T04:42:35;154327.81;;;21.26;68.90
61908;BME280;47864;52.526;19.672;2023-07-24T04:44:36;154299.78;;;21.15;69.25
61908;BME280;47864;52.526;19.672;2023-07-24T04:46:38;154239.94;;;20.91;69.89
61908;BME280;47864;52.526;19.672;2023-07-24T04:48:40;154246.28;;;20.94;70.13
61908;BME280;47864;52.526;19.672;2023-07-24T04:50:41;154239.94;;;20.91;71.43
61908;BME280;47864;52.526;19.672;2023-07-24T04:52:43;154260.31;;;20.99;70.24
61908;BME280;47864;52.526;19.672;2023-07-24T04:54:44;154303.63;;;21.16;69.88
61908;BME280;47864;52.526;19.672;2023-07-24T04:56:46;154289.56;;;21.11;71.32
61908;BME280;47864;52.526;19.672;2023-07-24T04:58:48;154293.41;;;21.12;70.81
61908;BME280;47864;52.526;19.672;2023-07-24T05:00:49;154322.75;;;21.24;70.28
61908;BME280;47864;52.526;19.672;2023-07-24T05:02:51;154295.97;;;21.13;69.96
61908;BME280;47864;52.526;19.672;2023-07-24T05:04:52;154306.16;;;21.17;70.10
61908;BME280;47864;52.526;19.672;2023-07-24T05:06:54;154274.31;;;21.05;70.36
61908;BME280;47864;52.526;19.672;2023-07-24T05:08:55;154331.66;;;21.27;70.82
61908;BME280;47864;52.526;19.672;2023-07-24T05:10:57;154355.84;;;21.37;69.54
61908;BME280;47864;52.526;19.672;2023-07-24T05:12:59;154321.50;;;21.23;70.24
61908;BME280;47864;52.526;19.672;2023-07-24T05:15:00;154336.75;;;21.30;69.93
61908;BME280;47864;52.526;19.672;2023-07-24T05:17:02;154348.19;;;21.34;69.81
61908;BME280;47864;52.526;19.672;2023-07-24T05:19:03;154320.22;;;21.23;69.26
61908;BME280;47864;52.526;19.672;2023-07-24T05:21:05;154364.78;;;21.41;69.80
61908;BME280;47864;52.526;19.672;2023-07-24T05:23:07;154378.78;;;21.46;70.27
61908;BME280;47864;52.526;19.672;2023-07-24T05:25:08;154368.56;;;21.42;71.80
61908;BME280;47864;52.526;19.672;2023-07-24T05:27:10;154371.13;;;21.43;69.62
61908;BME280;47864;52.526;19.672;2023-07-24T05:29:11;154427.19;;;21.66;69.86
61908;BME280;47864;52.526;19.672;2023-07-24T05:31:13;154391.50;;;21.51;70.05
61908;BME280;47864;52.526;19.672;2023-07-24T05:33:15;154395.31;;;21.53;70.33
61908;BME280;47864;52.526;19.672;2023-07-24T05:35:16;154432.25;;;21.68;70.83
61908;BME280;47864;52.526;19.672;2023-07-24T05:37:18;154391.50;;;21.51;70.59
61908;BME280;47864;52.526;19.672;2023-07-24T05:39:19;154368.56;;;21.42;71.83
61908;BME280;47864;52.526;19.672;2023-07-24T05:41:21;154434.81;;;21.69;71.95
61908;BME280;47864;52.526;19.672;2023-07-24T05:43:23;154445.03;;;21.73;72.59
61908;BME280;47864;52.526;19.672;2023-07-24T05:45:24;154465.41;;;21.81;71.22
61908;BME280;47864;52.526;19.672;2023-07-24T05:47:26;154506.22;;;21.97;73.43
61908;BME280;47864;52.526;19.672;2023-07-24T05:49:28;154499.78;;;21.94;69.94
61908;BME280;47864;52.526;19.672;2023-07-24T05:51:29;154457.75;;;21.78;71.78
61908;BME280;47864;52.526;19.672;2023-07-24T05:53:31;154371.13;;;21.43;74.87
61908;BME280;47864;52.526;19.672;2023-07-24T05:55:32;154378.78;;;21.46;81.72
61908;BME280;47864;52.526;19.672;2023-07-24T05:57:34;154349.47;;;21.35;84.82
61908;BME280;47864;52.526;19.672;2023-07-24T05:59:36;154310.00;;;21.19;87.09
61908;BME280;47864;52.526;19.672;2023-07-24T06:01:37;154251.38;;;20.96;96.44
61908;BME280;47864;52.526;19.672;2023-07-24T06:03:39;154264.09;;;21.01;99.42
61908;BME280;47864;52.526;19.672;2023-07-24T06:05:41;154229.75;;;20.87;98.83
61908;BME280;47864;52.526;19.672;2023-07-24T06:07:42;154218.31;;;20.82;99.44
61908;BME280;47864;52.526;19.672;2023-07-24T06:09:44;154215.75;;;20.81;100.00
61908;BME280;47864;52.526;19.672;2023-07-24T06:11:45;154181.34;;;20.68;100.00
61908;BME280;47864;52.526;19.672;2023-07-24T06:13:47;154177.56;;;20.66;100.00
61908;BME280;47864;52.526;19.672;2023-07-24T06:15:49;154149.56;;;20.55;100.00
61908;BME280;47864;52.526;19.672;2023-07-24T06:17:51;154144.44;;;20.53;100.00
61908;BME280;47864;52.526;19.672;2023-07-24T06:19:55;154143.16;;;20.52;100.00
61908;BME280;47864;52.526;19.672;2023-07-24T06:21:56;154169.91;;;20.63;100.00
61908;BME280;47864;52.526;19.672;2023-07-24T06:23:58;154204.28;;;20.77;100.00
61908;BME280;47864;52.526;19.672;2023-07-24T06:25:59;154248.84;;;20.95;100.00
61908;BME280;47864;52.526;19.672;2023-07-24T06:28:01;154252.66;;;20.96;100.00
61908;BME280;47864;52.526;19.672;2023-07-24T06:30:03;154217.03;;;20.82;100.00
61908;BME280;47864;52.526;19.672;2023-07-24T06:32:16;154246.28;;;20.94;100.00
61908;BME280;47864;52.526;19.672;2023-07-24T06:34:17;154329.09;;;21.26;100.00
61908;BME280;47864;52.526;19.672;2023-07-24T06:36:19;154326.53;;;21.25;100.00
61908;BME280;47864;52.526;19.672;2023-07-24T06:38:21;154422.09;;;21.63;100.00
61908;BME280;47864;52.526;19.672;2023-07-24T06:40:22;154447.59;;;21.74;100.00
61908;BME280;47864;52.526;19.672;2023-07-24T06:42:24;154492.13;;;21.91;100.00
61908;BME280;47864;52.526;19.672;2023-07-24T06:44:25;154456.47;;;21.77;100.00
61908;BME280;47864;52.526;19.672;2023-07-24T06:46:27;154413.16;;;21.60;100.00
61908;BME280;47864;52.526;19.672;2023-07-24T06:48:29;154363.50;;;21.40;100.00
61908;BME280;47864;52.526;19.672;2023-07-24T06:50:30;154400.44;;;21.55;100.00
61908;BME280;47864;52.526;19.672;2023-07-24T06:52:32;154427.19;;;21.66;100.00
61908;BME280;47864;52.526;19.672;2023-07-24T06:54:34;154470.47;;;21.83;97.91
61908;BME280;47864;52.526;19.672;2023-07-24T06:56:35;154541.88;;;22.11;98.79
61908;BME280;47864;52.526;19.672;2023-07-24T06:58:37;154557.16;;;22.17;95.98
61908;BME280;47864;52.526;19.672;2023-07-24T07:00:39;154615.75;;;22.40;98.08
61908;BME280;47864;52.526;19.672;2023-07-24T07:02:40;154589.03;;;22.30;92.60
61908;BME280;47864;52.526;19.672;2023-07-24T07:04:42;154620.88;;;22.43;93.27
61908;BME280;47864;52.526;19.672;2023-07-24T07:06:43;154615.75;;;22.40;92.82
61908;BME280;47864;52.526;19.672;2023-07-24T07:08:45;154656.53;;;22.57;93.76
61908;BME280;47864;52.526;19.672;2023-07-24T07:10:47;154657.81;;;22.57;94.33
61908;BME280;47864;52.526;19.672;2023-07-24T07:12:55;154661.66;;;22.59;89.48
61908;BME280;47864;52.526;19.672;2023-07-24T07:14:57;154697.38;;;22.73;88.67
61908;BME280;47864;52.526;19.672;2023-07-24T07:16:58;154740.72;;;22.90;86.30
61908;BME280;47864;52.526;19.672;2023-07-24T07:19:00;154812.13;;;23.19;86.58
61908;BME280;47864;52.526;19.672;2023-07-24T07:21:01;154815.97;;;23.20;83.45
61908;BME280;47864;52.526;19.672;2023-07-24T07:23:03;154823.59;;;23.23;85.21
61908;BME280;47864;52.526;19.672;2023-07-24T07:25:05;154901.44;;;23.54;84.68
61908;BME280;47864;52.526;19.672;2023-07-24T07:27:06;154910.34;;;23.58;84.43
61908;BME280;47864;52.526;19.672;2023-07-24T07:29:08;154870.78;;;23.42;83.76
61908;BME280;47864;52.526;19.672;2023-07-24T07:31:10;154900.16;;;23.54;83.61
61908;BME280;47864;52.526;19.672;2023-07-24T07:33:12;154829.97;;;23.26;84.00
61908;BME280;47864;52.526;19.672;2023-07-24T07:35:14;154879.72;;;23.45;83.28
61908;BME280;47864;52.526;19.672;2023-07-24T07:37:15;154872.06;;;23.42;82.84
61908;BME280;47864;52.526;19.672;2023-07-24T07:39:17;155057.03;;;24.16;83.91
61908;BME280;47864;52.526;19.672;2023-07-24T07:41:18;155183.41;;;24.66;78.49
61908;BME280;47864;52.526;19.672;2023-07-24T07:43:20;155150.25;;;24.53;76.60
61908;BME280;47864;52.526;19.672;2023-07-24T07:45:22;155155.31;;;24.55;76.69
61908;BME280;47864;52.526;19.672;2023-07-24T07:47:25;155196.16;;;24.71;76.62
61908;BME280;47864;52.526;19.672;2023-07-24T07:49:26;155234.47;;;24.86;75.53
61908;BME280;47864;52.526;19.672;2023-07-24T07:51:31;155215.34;;;24.79;73.90
61908;BME280;47864;52.526;19.672;2023-07-24T07:53:33;155240.81;;;24.89;72.60
61908;BME280;47864;52.526;19.672;2023-07-24T07:55:34;155336.63;;;25.27;69.64
61908;BME280;47864;52.526;19.672;2023-07-24T07:57:36;155284.28;;;25.06;70.55
61908;BME280;47864;52.526;19.672;2023-07-24T07:59:37;155279.16;;;25.04;71.11
61908;BME280;47864;52.526;19.672;2023-07-24T08:01:39;155381.31;;;25.45;70.18
61908;BME280;47864;52.526;19.672;2023-07-24T08:03:40;155417.09;;;25.59;66.95
61908;BME280;47864;52.526;19.672;2023-07-24T08:05:42;155455.41;;;25.74;65.27
61908;BME280;47864;52.526;19.672;2023-07-24T08:07:44;155470.72;;;25.80;65.17
61908;BME280;47864;52.526;19.672;2023-07-24T08:09:46;155562.69;;;26.17;65.59
61908;BME280;47864;52.526;19.672;2023-07-24T08:11:47;155762.06;;;26.96;63.54
61908;BME280;47864;52.526;19.672;2023-07-24T08:13:49;155813.19;;;27.16;57.93
61908;BME280;47864;52.526;19.672;2023-07-24T08:15:50;155759.50;;;26.95;58.51
61908;BME280;47864;52.526;19.672;2023-07-24T08:17:52;155843.84;;;27.28;56.89
61908;BME280;47864;52.526;19.672;2023-07-24T08:19:53;156017.75;;;27.97;55.60
61908;BME280;47864;52.526;19.672;2023-07-24T08:21:55;155966.59;;;27.77;56.09
61908;BME280;47864;52.526;19.672;2023-07-24T08:23:56;155889.88;;;27.46;55.13
61908;BME280;47864;52.526;19.672;2023-07-24T08:25:58;155907.81;;;27.53;55.49
61908;BME280;47864;52.526;19.672;2023-07-24T08:27:59;155925.69;;;27.60;55.72
61908;BME280;47864;52.526;19.672;2023-07-24T08:30:07;155893.72;;;27.48;55.52
61908;BME280;47864;52.526;19.672;2023-07-24T08:32:08;155886.03;;;27.45;54.41
61908;BME280;47864;52.526;19.672;2023-07-24T08:34:10;155906.47;;;27.53;54.46
61908;BME280;47864;52.526;19.672;2023-07-24T08:36:12;155983.25;;;27.83;53.69
61908;BME280;47864;52.526;19.672;2023-07-24T08:38:13;156045.91;;;28.08;52.96
61908;BME280;47864;52.526;19.672;2023-07-24T08:40:15;156006.22;;;27.92;52.80
61908;BME280;47864;52.526;19.672;2023-07-24T08:42:17;155926.97;;;27.61;53.38
61908;BME280;47864;52.526;19.672;2023-07-24T08:44:20;155976.84;;;27.81;53.89
61908;BME280;47864;52.526;19.672;2023-07-24T08:46:21;155829.81;;;27.22;55.90
61908;BME280;47864;52.526;19.672;2023-07-24T08:48:23;155774.88;;;27.01;56.91
61908;BME280;47864;52.526;19.672;2023-07-24T08:50:26;155873.25;;;27.40;55.80
61908;BME280;47864;52.526;19.672;2023-07-24T08:52:28;155903.91;;;27.52;55.24
61908;BME280;47864;52.526;19.672;2023-07-24T08:54:37;155942.34;;;27.67;53.13
61908;BME280;47864;52.526;19.672;2023-07-24T08:56:39;155895.00;;;27.48;52.34
61908;BME280;47864;52.526;19.672;2023-07-24T08:58:41;155891.16;;;27.47;53.26
61908;BME280;47864;52.526;19.672;2023-07-24T09:00:43;155814.47;;;27.16;53.45
61908;BME280;47864;52.526;19.672;2023-07-24T09:02:44;155595.94;;;26.30;56.52
61908;BME280;47864;52.526;19.672;2023-07-24T09:04:46;155754.44;;;26.93;54.64
61908;BME280;47864;52.526;19.672;2023-07-24T09:06:48;155751.88;;;26.92;55.30
61908;BME280;47864;52.526;19.672;2023-07-24T09:08:53;155847.69;;;27.30;55.11
61908;BME280;47864;52.526;19.672;2023-07-24T09:10:55;155933.38;;;27.63;54.40
61908;BME280;47864;52.526;19.672;2023-07-24T09:12:57;155912.94;;;27.55;53.02
61908;BME280;47864;52.526;19.672;2023-07-24T09:15:03;155864.28;;;27.36;52.86
61908;BME280;47864;52.526;19.672;2023-07-24T09:17:10;155773.59;;;27.00;53.75
61908;BME280;47864;52.526;19.672;2023-07-24T09:19:21;155782.50;;;27.04;53.41
61908;BME280;47864;52.526;19.672;2023-07-24T09:21:29;155878.38;;;27.42;52.15
61908;BME280;47864;52.526;19.672;2023-07-24T09:23:31;155874.53;;;27.40;52.13
61908;BME280;47864;52.526;19.672;2023-07-24T09:25:34;155941.06;;;27.67;51.33
61908;BME280;47864;52.526;19.672;2023-07-24T09:27:36;156045.91;;;28.08;50.26
61908;BME280;47864;52.526;19.672;2023-07-24T09:29:38;156134.16;;;28.43;50.29
61908;BME280;47864;52.526;19.672;2023-07-24T09:31:40;156103.50;;;28.31;47.60
61908;BME280;47864;52.526;19.672;2023-07-24T09:33:41;156135.44;;;28.44;47.71
61908;BME280;47864;52.526;19.672;2023-07-24T09:35:43;156223.75;;;28.79;46.04
61908;BME280;47864;52.526;19.672;2023-07-24T09:37:45;156162.31;;;28.54;45.80
61908;BME280;47864;52.526;19.672;2023-07-24T09:39:47;156273.66;;;28.98;43.78
61908;BME280;47864;52.526;19.672;2023-07-24T09:41:48;156232.72;;;28.82;44.11
61908;BME280;47864;52.526;19.672;2023-07-24T09:43:58;156186.63;;;28.64;44.82
61908;BME280;47864;52.526;19.672;2023-07-24T09:45:59;156265.97;;;28.95;43.55
61908;BME280;47864;52.526;19.672;2023-07-24T09:48:01;156209.66;;;28.73;44.57
61908;BME280;47864;52.526;19.672;2023-07-24T09:50:07;156226.31;;;28.80;43.38
61908;BME280;47864;52.526;19.672;2023-07-24T09:52:09;156185.34;;;28.63;44.52
61908;BME280;47864;52.526;19.672;2023-07-24T09:54:18;156210.94;;;28.73;45.19
61908;BME280;47864;52.526;19.672;2023-07-24T09:56:22;156112.41;;;28.34;44.17
61908;BME280;47864;52.526;19.672;2023-07-24T09:58:40;156120.09;;;28.37;45.14
61908;BME280;47864;52.526;19.672;2023-07-24T10:00:42;156141.84;;;28.46;45.07
61908;BME280;47864;52.526;19.672;2023-07-24T10:02:44;156214.72;;;28.75;44.91
61908;BME280;47864;52.526;19.672;2023-07-24T10:04:46;156350.41;;;29.29;43.67
61908;BME280;47864;52.526;19.672;2023-07-24T10:06:49;156337.63;;;29.24;43.84
61908;BME280;47864;52.526;19.672;2023-07-24T10:08:51;156251.91;;;28.90;40.69
61908;BME280;47864;52.526;19.672;2023-07-24T10:10:53;156180.22;;;28.61;41.10
61908;BME280;47864;52.526;19.672;2023-07-24T10:12:55;156149.53;;;28.49;41.07
61908;BME280;47864;52.526;19.672;2023-07-24T10:14:57;156186.63;;;28.64;41.53
61908;BME280;47864;52.526;19.672;2023-07-24T10:16:59;156328.66;;;29.20;40.49
61908;BME280;47864;52.526;19.672;2023-07-24T10:19:12;156368.38;;;29.36;41.95
61908;BME280;47864;52.526;19.672;2023-07-24T10:21:13;156460.53;;;29.72;39.53
61908;BME280;47864;52.526;19.672;2023-07-24T10:23:16;156461.81;;;29.73;41.84
61908;BME280;47864;52.526;19.672;2023-07-24T10:25:29;156396.53;;;29.47;40.65
61908;BME280;47864;52.526;19.672;2023-07-24T10:27:30;156478.44;;;29.79;42.24
61908;BME280;47864;52.526;19.672;2023-07-24T10:29:35;156419.56;;;29.56;42.06
61908;BME280;47864;52.526;19.672;2023-07-24T10:31:37;156418.28;;;29.56;39.92
61908;BME280;47864;52.526;19.672;2023-07-24T10:33:44;156359.34;;;29.32;40.84